Anch, Alaska
Current Conditions -  °F | °C
As of 8:58 PM on Thursday 27 Nov 2014 (Local Time) from PAED Reporting Station
Haze Haze  
Wind Chill: 13°   Ceiling: 200
Heat Index: 13°   Visibility: 1mi
Dew Point: 10°   Wind: 2mph
Humidity: 88%   Direction: 90°E
Pressure: 30.17"   Gusts: NA
Location:  61.2265°N, 149.62°W
Report Text: PAED 280558Z 09002KT 1SM R06/P6000FT BR VV002 M11/M12 A3017 RMK AO2A VIS 1V1 3/4 CIG 002V004 SLP216 60000 T11071123 11060 21107 55002
Loading
Personal Weather Stations






























Interactive Weather Map New forecast layout! Learn more

10-Day Weather Forecast

Advertisements
Track Severe Weather on mobile